Portada
METAR-TAF:

METAR-TAF

Aeroports :

Maradi, Níger

latitud: 13-28N, longitud: 007-05E, altitud: 372 m

Observació

L'informe es va fer fa 1 hora i 2 minuts, a les 12:00 UTC
Vent 12 kt del Est
Temperatura 33°C
Humitat 9%
Pressió 1013 hPa
Visibilitat 10 km o més
sense núvols per sota de 1500 mi sense presència de cumulonimbus.

METAR: DRRM 281200Z 10012KT CAVOK 33/M04 Q1013

Hora: 14:02 (13:02 UTC)


TAF: manca

Observacions i pronòstics meteorològics de més de 4000 aeroports (METAR i TAF).

Les estacions disponibles són els punts grocs i vermells al mapa.

Posi el ratolí al punt desitjat per veure el nom de l'estació.

Feu clic per veure les observacions i els pronòstics meteorològics.

Per canviar el mapa: feu clic els botons verds amb una creu de color negre per apropar; al botó verd amb un guió per allunyar la imatge; o en les fletxes verdes per a mapes adjacents.


METAR-TAF: